Time;durP1;ratioP1;P1;durP2;ratioP2;P2;SDS_P1;SDS_P2;PMS_P1;PMS_P2;Temp;Humidity;BMP_temperature;BMP_pressure;BME280_temperature;BME280_humidity;BME280_pressure;Samples;Min_cycle;Max_cycle;Signal;HPM_P1;HPM_P2
2022/04/13 00:02:07;;;;;;;10.60;2.80;;;14.80;1.00;;;;;;4957048;29;20090;-87
2022/04/13 00:04:33;;;;;;;9.27;2.80;;;14.70;1.00;;;;;;4955090;29;20693;-88
2022/04/13 00:06:58;;;;;;;8.55;2.63;;;14.70;1.00;;;;;;4956082;29;20050;-85
2022/04/13 00:09:25;;;;;;;16.05;3.10;;;14.70;1.00;;;;;;4954491;29;20110;-87
2022/04/13 00:11:52;;;;;;;9.98;2.80;;;14.70;1.00;;;;;;4953931;29;20124;-87
2022/04/13 00:14:22;;;;;;;7.93;2.90;;;14.70;1.00;;;;;;4954874;29;20471;-88
2022/04/13 00:16:48;;;;;;;10.68;2.58;;;14.70;1.00;;;;;;4954140;29;20035;-87
2022/04/13 00:19:14;;;;;;;16.88;3.45;;;14.80;1.00;;;;;;4955120;29;20027;-87
2022/04/13 00:21:40;;;;;;;12.70;2.88;;;14.80;1.00;;;;;;4954986;28;20174;-88
2022/04/13 00:24:06;;;;;;;11.65;2.72;;;14.70;1.00;;;;;;4953580;29;20027;-87
2022/04/13 00:26:32;;;;;;;9.35;2.60;;;14.70;1.00;;;;;;4953123;29;20031;-88
2022/04/13 00:28:58;;;;;;;11.65;3.15;;;14.70;1.00;;;;;;4950420;29;20035;-88
2022/04/13 00:31:24;;;;;;;12.10;3.15;;;14.60;1.00;;;;;;4955313;29;20546;-88
2022/04/13 00:33:50;;;;;;;8.15;2.72;;;14.60;1.00;;;;;;4955174;29;20117;-87
2022/04/13 00:36:15;;;;;;;12.00;3.08;;;14.60;1.00;;;;;;4953013;29;20503;-87
2022/04/13 00:38:41;;;;;;;10.25;3.30;;;14.50;1.00;;;;;;4954829;28;20055;-88
2022/04/13 00:41:06;;;;;;;8.77;2.67;;;14.50;1.00;;;;;;4954373;29;20466;-88
2022/04/13 00:43:32;;;;;;;14.20;2.95;;;14.50;1.00;;;;;;4953318;29;20027;-88
2022/04/13 00:45:58;;;;;;;10.73;2.60;;;14.50;1.00;;;;;;4954423;29;20031;-88
2022/04/13 00:48:42;;;;;;;11.77;2.67;;;14.50;1.00;;;;;;4954441;29;20551;-87
2022/04/13 00:51:08;;;;;;;10.10;2.70;;;14.40;1.00;;;;;;4954381;29;20086;-87
2022/04/13 00:53:35;;;;;;;13.45;3.22;;;14.50;1.00;;;;;;4953363;29;20031;-88
2022/04/13 00:56:03;;;;;;;10.80;3.03;;;14.60;1.00;;;;;;4954632;29;20658;-87
2022/04/13 00:58:32;;;;;;;10.27;3.28;;;14.50;1.00;;;;;;4954773;29;20130;-88
2022/04/13 01:01:02;;;;;;;11.90;2.75;;;14.50;1.00;;;;;;4952985;28;20098;-87
2022/04/13 01:03:29;;;;;;;10.05;2.80;;;14.50;1.00;;;;;;4954417;28;20028;-88
2022/04/13 01:05:55;;;;;;;19.10;6.90;;;14.60;1.00;;;;;;4953854;29;20045;-87
2022/04/13 01:08:22;;;;;;;12.80;3.10;;;14.50;1.00;;;;;;4955623;29;20114;-88
2022/04/13 01:10:49;;;;;;;13.00;3.22;;;14.50;1.00;;;;;;4954628;29;20031;-87
2022/04/13 01:13:17;;;;;;;9.20;3.22;;;14.60;1.00;;;;;;4953874;29;20138;-87
2022/04/13 01:15:44;;;;;;;13.75;2.92;;;14.60;1.00;;;;;;4954040;29;20058;-87
2022/04/13 01:18:10;;;;;;;12.82;3.00;;;14.50;1.00;;;;;;4953794;29;20077;-87
2022/04/13 01:20:39;;;;;;;13.98;2.97;;;14.30;1.00;;;;;;4952500;29;20449;-87
2022/04/13 01:23:07;;;;;;;9.02;2.60;;;14.30;1.00;;;;;;4954229;29;20035;-88
2022/04/13 01:25:32;;;;;;;12.23;3.13;;;14.40;1.00;;;;;;4953659;29;20035;-87
2022/04/13 01:27:58;;;;;;;10.38;2.85;;;14.20;1.00;;;;;;4953194;29;20058;-88
2022/04/13 01:30:24;;;;;;;12.55;2.83;;;14.30;1.00;;;;;;4953792;29;20491;-87
2022/04/13 01:32:53;;;;;;;11.10;2.88;;;14.30;1.00;;;;;;4953626;29;20561;-88
2022/04/13 01:35:18;;;;;;;12.10;3.28;;;14.30;1.00;;;;;;4953446;29;20487;-87
2022/04/13 01:37:44;;;;;;;10.07;2.80;;;14.20;1.00;;;;;;4954672;29;20058;-87
2022/04/13 01:40:10;;;;;;;11.60;3.22;;;14.20;1.00;;;;;;4953872;28;20170;-87
2022/04/13 01:42:37;;;;;;;12.90;3.00;;;14.10;1.00;;;;;;4953536;29;20031;-87
2022/04/13 01:45:04;;;;;;;9.68;2.75;;;14.20;1.00;;;;;;4953579;29;20133;-88
2022/04/13 01:47:30;;;;;;;10.85;2.90;;;14.00;1.00;;;;;;4938357;29;20035;-87
2022/04/13 01:49:56;;;;;;;11.43;2.95;;;14.00;1.00;;;;;;4954484;28;20119;-87
2022/04/13 01:52:21;;;;;;;11.75;2.90;;;14.10;1.00;;;;;;4953124;29;20253;-88
2022/04/13 01:54:47;;;;;;;15.18;3.47;;;14.20;1.00;;;;;;4952956;29;20385;-88
2022/04/13 01:57:13;;;;;;;12.57;2.97;;;14.20;1.00;;;;;;4952132;29;20102;-87
2022/04/13 01:59:38;;;;;;;10.77;3.17;;;14.20;1.00;;;;;;4952177;29;20034;-87
2022/04/13 02:02:04;;;;;;;13.85;3.63;;;14.10;1.00;;;;;;4952359;29;20059;-87
2022/04/13 02:04:31;;;;;;;11.15;2.47;;;14.10;1.00;;;;;;4952867;29;20030;-87
2022/04/13 02:06:57;;;;;;;11.60;2.83;;;14.10;1.00;;;;;;4953352;29;20035;-88
2022/04/13 02:09:23;;;;;;;13.20;3.08;;;14.00;1.00;;;;;;4951240;29;20408;-88
2022/04/13 02:11:49;;;;;;;9.80;2.78;;;13.90;1.00;;;;;;4952155;29;20135;-88
2022/04/13 02:14:15;;;;;;;10.52;2.95;;;14.00;1.00;;;;;;4953574;29;20050;-87
2022/04/13 02:16:41;;;;;;;11.70;3.03;;;14.00;1.00;;;;;;4953534;29;20466;-87
2022/04/13 02:19:12;;;;;;;9.25;3.05;;;13.90;1.00;;;;;;4953301;28;20118;-88
2022/04/13 02:21:39;;;;;;;11.13;3.03;;;14.00;1.00;;;;;;4951869;29;20102;-87
2022/04/13 02:24:05;;;;;;;10.13;2.78;;;13.90;1.00;;;;;;4952332;29;20122;-88
2022/04/13 02:26:31;;;;;;;14.32;3.38;;;13.90;1.00;;;;;;4953418;29;20027;-87
2022/04/13 02:28:57;;;;;;;13.68;3.13;;;13.90;1.00;;;;;;4948775;29;20055;-87
2022/04/13 02:31:22;;;;;;;11.10;2.83;;;13.90;1.00;;;;;;4952781;29;20027;-87
2022/04/13 02:33:51;;;;;;;11.05;2.95;;;14.00;1.00;;;;;;4953021;29;20075;-87
2022/04/13 02:36:17;;;;;;;9.30;3.08;;;13.90;1.00;;;;;;4951659;29;20504;-86
2022/04/13 02:38:42;;;;;;;15.15;3.22;;;13.90;1.00;;;;;;4952730;29;20081;-87
2022/04/13 02:41:08;;;;;;;12.93;3.17;;;13.80;1.00;;;;;;4953034;29;20507;-88
2022/04/13 02:43:34;;;;;;;10.80;3.50;;;13.80;1.00;;;;;;4953487;29;20285;-88
2022/04/13 02:45:59;;;;;;;13.27;3.45;;;13.90;1.00;;;;;;4953152;29;20027;-87
2022/04/13 02:48:25;;;;;;;16.95;3.60;;;13.90;1.00;;;;;;4951440;29;20027;-88
2022/04/13 02:50:52;;;;;;;11.57;3.00;;;13.90;1.00;;;;;;4952054;29;20023;-88
2022/04/13 02:53:18;;;;;;;13.30;2.83;;;13.80;1.00;;;;;;4951288;29;20506;-88
2022/04/13 02:55:43;;;;;;;11.32;3.30;;;13.80;1.00;;;;;;4952557;29;20031;-88
2022/04/13 02:58:09;;;;;;;12.40;2.90;;;13.70;1.00;;;;;;4952801;28;20504;-87
2022/04/13 03:00:35;;;;;;;9.88;2.67;;;13.70;1.00;;;;;;4953066;29;20467;-88
2022/04/13 03:03:01;;;;;;;13.18;3.45;;;13.70;1.00;;;;;;4954938;28;20023;-87
2022/04/13 03:05:26;;;;;;;9.82;2.97;;;13.60;1.00;;;;;;4956123;29;20094;-88
2022/04/13 03:07:52;;;;;;;13.82;2.60;;;13.60;1.00;;;;;;4957712;29;20033;-87
2022/04/13 03:10:17;;;;;;;10.07;2.70;;;13.60;1.00;;;;;;4956298;29;20515;-87
2022/04/13 03:12:43;;;;;;;13.90;3.30;;;13.50;1.00;;;;;;4956059;29;20028;-87
2022/04/13 03:15:11;;;;;;;12.00;3.25;;;13.50;1.00;;;;;;4956337;29;20488;-88
2022/04/13 03:17:37;;;;;;;13.50;3.28;;;13.50;1.00;;;;;;4956500;29;20034;-88
2022/04/13 03:20:04;;;;;;;11.00;3.20;;;13.50;1.00;;;;;;4956292;29;20035;-86
2022/04/13 03:22:30;;;;;;;10.00;3.08;;;13.50;1.00;;;;;;4955465;29;20038;-87
2022/04/13 03:24:58;;;;;;;10.88;3.15;;;13.40;1.00;;;;;;4952776;29;20035;-87
2022/04/13 03:27:24;;;;;;;12.75;3.20;;;13.40;1.00;;;;;;4956107;29;20051;-86
2022/04/13 03:29:50;;;;;;;9.90;3.15;;;13.40;1.00;;;;;;4949597;29;20032;-87
2022/04/13 03:32:15;;;;;;;13.25;2.88;;;13.40;1.00;;;;;;4938489;29;20123;-87
2022/04/13 03:34:41;;;;;;;11.27;3.13;;;13.40;1.00;;;;;;4952733;29;20023;-86
2022/04/13 03:37:07;;;;;;;12.13;3.08;;;13.40;1.00;;;;;;4962409;28;20031;-87
2022/04/13 03:39:32;;;;;;;11.00;2.70;;;13.40;1.00;;;;;;4956970;29;20031;-87
2022/04/13 03:41:58;;;;;;;10.63;3.08;;;13.40;1.00;;;;;;4956567;29;20511;-87
2022/04/13 03:44:24;;;;;;;13.55;3.13;;;13.40;1.00;;;;;;4956815;29;20058;-86
2022/04/13 03:46:50;;;;;;;10.75;2.60;;;13.40;1.00;;;;;;4956966;29;20051;-86
2022/04/13 03:49:16;;;;;;;11.90;3.35;;;13.30;1.00;;;;;;4939393;29;20031;-86
2022/04/13 03:51:42;;;;;;;10.15;2.58;;;13.30;1.00;;;;;;4948671;29;20059;-87
2022/04/13 03:54:09;;;;;;;9.57;2.72;;;13.20;1.00;;;;;;4955279;29;20027;-87
2022/04/13 03:56:36;;;;;;;10.18;2.60;;;13.20;1.00;;;;;;4955302;29;20031;-87
2022/04/13 03:59:03;;;;;;;9.35;2.30;;;13.20;1.00;;;;;;4956480;29;20034;-87
2022/04/13 04:01:30;;;;;;;11.73;2.30;;;13.20;1.00;;;;;;4956297;29;20062;-87
2022/04/13 04:03:55;;;;;;;7.72;2.60;;;13.20;1.00;;;;;;4955037;29;20079;-86
2022/04/13 04:06:21;;;;;;;8.70;2.83;;;13.20;1.00;;;;;;4955540;29;20039;-87
2022/04/13 04:08:47;;;;;;;7.25;2.50;;;13.20;1.00;;;;;;4956597;29;20030;-87
2022/04/13 04:11:12;;;;;;;12.95;2.47;;;13.10;1.00;;;;;;4956281;29;20035;-87
2022/04/13 04:13:38;;;;;;;7.78;2.40;;;13.20;1.00;;;;;;4954886;28;20023;-87
2022/04/13 04:16:04;;;;;;;10.10;2.75;;;13.20;1.00;;;;;;4955381;29;20035;-88
2022/04/13 04:18:30;;;;;;;11.30;2.35;;;13.20;1.00;;;;;;4955230;29;20062;-87
2022/04/13 04:20:56;;;;;;;8.35;2.45;;;13.20;1.00;;;;;;4954582;29;20117;-87
2022/04/13 04:23:22;;;;;;;8.50;2.40;;;13.10;1.00;;;;;;4956286;28;20372;-87
2022/04/13 04:25:48;;;;;;;10.13;2.42;;;13.20;1.00;;;;;;4955998;29;20027;-87
2022/04/13 04:28:15;;;;;;;6.90;2.38;;;13.10;1.00;;;;;;4955479;29;20423;-87
2022/04/13 04:30:41;;;;;;;9.02;2.50;;;13.10;1.00;;;;;;4954318;29;20024;-87
2022/04/13 04:33:08;;;;;;;12.13;2.40;;;13.20;1.00;;;;;;4954535;29;20027;-88
2022/04/13 04:35:35;;;;;;;10.55;2.58;;;13.10;1.00;;;;;;4952902;29;20027;-87
2022/04/13 04:38:01;;;;;;;10.25;2.95;;;13.10;1.00;;;;;;4953900;29;20027;-87
2022/04/13 04:40:27;;;;;;;6.28;2.83;;;13.00;1.00;;;;;;4954960;29;20027;-86
2022/04/13 04:42:52;;;;;;;7.65;2.50;;;13.00;1.00;;;;;;4954515;29;20399;-86
2022/04/13 04:45:22;;;;;;;10.23;2.58;;;13.00;1.00;;;;;;4954756;29;20167;-88
2022/04/13 04:47:49;;;;;;;9.90;2.55;;;13.10;1.00;;;;;;4953781;29;20059;-88
2022/04/13 04:50:17;;;;;;;8.48;2.70;;;13.10;1.00;;;;;;4955448;29;20023;-89
2022/04/13 04:52:44;;;;;;;8.95;2.17;;;13.10;1.00;;;;;;4953268;29;20028;-89
2022/04/13 04:55:12;;;;;;;8.50;2.22;;;13.10;1.00;;;;;;4953531;28;20090;-88
2022/04/13 04:57:38;;;;;;;8.95;2.97;;;13.10;1.00;;;;;;4953962;29;20464;-88
2022/04/13 05:00:07;;;;;;;8.30;2.40;;;13.10;1.00;;;;;;4954330;29;20031;-88
2022/04/13 05:02:33;;;;;;;6.75;2.20;;;13.10;1.00;;;;;;4939316;29;20034;-89
2022/04/13 05:04:59;;;;;;;11.32;2.70;;;13.10;1.00;;;;;;4955467;29;20027;-90
2022/04/13 05:07:25;;;;;;;15.07;2.40;;;13.00;1.00;;;;;;4954222;29;20487;-89
2022/04/13 05:09:50;;;;;;;9.85;2.60;;;13.00;1.00;;;;;;4954062;29;20106;-89
2022/04/13 05:12:16;;;;;;;9.00;2.42;;;13.00;1.00;;;;;;4954171;29;20070;-91
2022/04/13 05:14:41;;;;;;;8.68;2.60;;;13.10;1.00;;;;;;4953719;29;20031;-89
2022/04/13 05:17:07;;;;;;;12.25;3.00;;;13.10;1.00;;;;;;4953391;29;20035;-91
2022/04/13 05:19:35;;;;;;;8.85;2.80;;;13.10;1.00;;;;;;4964944;28;20369;-91
2022/04/13 05:22:02;;;;;;;10.30;2.83;;;13.10;1.00;;;;;;4954590;29;20042;-89
2022/04/13 05:24:27;;;;;;;9.48;2.42;;;13.10;1.00;;;;;;4953004;28;20472;-90
2022/04/13 05:26:53;;;;;;;10.27;3.03;;;13.00;1.00;;;;;;4955094;29;20043;-91
2022/04/13 05:29:21;;;;;;;9.60;2.42;;;13.00;1.00;;;;;;4956541;29;20032;-90
2022/04/13 05:31:47;;;;;;;10.80;2.55;;;13.10;1.00;;;;;;4954445;29;20038;-90
2022/04/13 05:34:12;;;;;;;9.00;2.53;;;13.10;1.00;;;;;;4954295;28;20039;-90
2022/04/13 05:36:38;;;;;;;10.25;2.58;;;13.10;1.00;;;;;;4954391;29;20035;-90
2022/04/13 05:39:04;;;;;;;12.90;2.90;;;13.20;1.00;;;;;;4953620;29;20451;-89
2022/04/13 05:41:29;;;;;;;9.10;2.60;;;13.30;1.00;;;;;;4953861;29;20026;-90
2022/04/13 05:43:55;;;;;;;11.20;2.53;;;13.30;1.00;;;;;;4955074;29;20094;-90
2022/04/13 05:46:20;;;;;;;11.57;2.78;;;13.40;1.00;;;;;;4954845;29;20090;-89
2022/04/13 05:48:47;;;;;;;8.88;2.80;;;13.50;1.00;;;;;;4953077;29;20031;-89
2022/04/13 05:51:12;;;;;;;11.98;3.17;;;13.50;1.00;;;;;;4954126;29;20094;-90
2022/04/13 05:53:38;;;;;;;14.60;3.00;;;13.70;1.00;;;;;;4954764;29;20460;-89
2022/04/13 05:56:05;;;;;;;14.95;3.25;;;13.70;1.00;;;;;;4952946;29;20077;-90
2022/04/13 05:58:31;;;;;;;13.82;3.42;;;13.80;1.00;;;;;;4953814;29;20035;-90
2022/04/13 06:00:57;;;;;;;10.52;2.65;;;13.90;1.00;;;;;;4953388;29;20539;-89
2022/04/13 06:03:24;;;;;;;8.70;2.60;;;13.90;1.00;;;;;;4954484;29;20039;-89
2022/04/13 06:05:50;;;;;;;10.68;3.10;;;14.10;1.00;;;;;;4953488;29;20030;-90
2022/04/13 06:08:17;;;;;;;9.40;2.63;;;14.20;1.00;;;;;;4954053;29;20034;-89
2022/04/13 06:10:42;;;;;;;9.38;2.88;;;14.30;1.00;;;;;;4952641;29;20042;-90
2022/04/13 06:13:08;;;;;;;12.05;2.90;;;14.40;1.00;;;;;;4953178;28;20031;-90
2022/04/13 06:15:34;;;;;;;12.25;3.08;;;14.50;1.00;;;;;;4952360;29;20109;-90
2022/04/13 06:18:00;;;;;;;8.75;2.75;;;14.60;1.00;;;;;;4954353;29;20035;-90
2022/04/13 06:20:26;;;;;;;11.18;3.13;;;14.60;1.00;;;;;;4954518;29;20059;-90
2022/04/13 06:22:54;;;;;;;11.20;3.10;;;14.70;1.00;;;;;;4953549;29;20042;-92
2022/04/13 06:25:20;;;;;;;10.13;3.05;;;14.80;1.00;;;;;;4953199;29;20463;-86
2022/04/13 06:27:46;;;;;;;13.23;3.28;;;14.70;1.00;;;;;;4954581;29;20126;-88
2022/04/13 06:30:13;;;;;;;16.10;3.28;;;14.70;1.00;;;;;;4944389;29;20046;-88
2022/04/13 06:32:43;;;;;;;13.07;2.75;;;14.80;1.00;;;;;;4939304;29;20027;-89
2022/04/13 06:35:14;;;;;;;8.88;2.95;;;14.80;1.00;;;;;;4953101;29;20511;-88
2022/04/13 06:37:42;;;;;;;12.32;3.15;;;14.80;1.00;;;;;;4955718;28;20487;-88
2022/04/13 06:40:08;;;;;;;15.15;2.90;;;14.80;1.00;;;;;;4950137;29;20492;-89
2022/04/13 06:42:35;;;;;;;9.52;3.00;;;14.80;1.00;;;;;;4957236;29;20034;-88
2022/04/13 06:45:00;;;;;;;9.20;3.22;;;14.90;1.00;;;;;;4956736;29;20028;-89
2022/04/13 06:47:29;;;;;;;8.15;2.80;;;14.90;1.00;;;;;;4957294;29;20392;-89
2022/04/13 06:49:55;;;;;;;11.13;3.40;;;14.90;1.00;;;;;;4958136;29;20135;-89
2022/04/13 06:52:21;;;;;;;9.55;2.78;;;15.00;1.00;;;;;;4956283;28;20394;-89
2022/04/13 06:54:46;;;;;;;9.20;2.97;;;15.10;1.00;;;;;;4956078;29;20100;-89
2022/04/13 06:57:12;;;;;;;10.93;2.92;;;15.10;1.00;;;;;;4956987;29;20042;-88
2022/04/13 06:59:38;;;;;;;10.65;3.30;;;15.10;1.00;;;;;;4954692;29;20173;-89
2022/04/13 07:02:06;;;;;;;9.05;2.83;;;15.10;1.00;;;;;;4958131;29;20028;-88
2022/04/13 07:04:33;;;;;;;8.15;3.05;;;15.10;1.00;;;;;;4955793;29;20507;-88
2022/04/13 07:07:00;;;;;;;11.57;3.00;;;15.00;1.00;;;;;;4956803;29;20065;-89
2022/04/13 07:09:25;;;;;;;18.35;4.03;;;14.90;1.00;;;;;;4956015;29;20039;-89
2022/04/13 07:11:51;;;;;;;9.98;3.00;;;14.90;1.00;;;;;;4956851;29;20031;-89
2022/04/13 07:14:17;;;;;;;12.73;3.88;;;15.00;1.00;;;;;;4955273;29;20034;-89
2022/04/13 07:16:42;;;;;;;9.70;3.22;;;15.10;1.00;;;;;;4955250;29;20282;-89
2022/04/13 07:19:08;;;;;;;10.68;3.35;;;15.20;1.00;;;;;;4956919;29;20495;-89
2022/04/13 07:21:34;;;;;;;14.30;3.50;;;15.20;1.00;;;;;;4956700;29;20024;-88
2022/04/13 07:24:00;;;;;;;10.45;3.38;;;15.20;1.00;;;;;;4957050;29;20039;-89
2022/04/13 07:26:25;;;;;;;12.18;3.22;;;15.40;1.00;;;;;;4956528;29;20531;-88
2022/04/13 07:28:52;;;;;;;10.55;3.08;;;15.60;1.00;;;;;;4955260;29;20051;-88
2022/04/13 07:31:19;;;;;;;9.40;3.00;;;15.60;1.00;;;;;;4956932;28;20093;-88
2022/04/13 07:33:44;;;;;;;11.48;2.97;;;15.50;1.00;;;;;;4956756;29;20034;-89
2022/04/13 07:36:12;;;;;;;7.47;2.95;;;15.70;1.00;;;;;;4955961;29;20035;-89
2022/04/13 07:38:37;;;;;;;7.65;2.80;;;15.70;1.00;;;;;;4956178;28;20039;-89
2022/04/13 07:41:04;;;;;;;11.95;3.10;;;15.60;1.00;;;;;;4956627;29;20033;-87
2022/04/13 07:43:30;;;;;;;11.60;4.50;;;15.70;1.00;;;;;;4956143;29;20038;-89
2022/04/13 07:45:55;;;;;;;13.07;3.22;;;15.70;1.00;;;;;;4955265;29;20034;-89
2022/04/13 07:48:21;;;;;;;9.98;3.80;;;15.50;1.00;;;;;;4955900;28;20039;-89
2022/04/13 07:50:47;;;;;;;28.23;9.52;;;15.60;1.00;;;;;;4955216;29;20114;-89
2022/04/13 07:53:13;;;;;;;13.57;4.20;;;15.60;1.00;;;;;;4954765;29;20035;-88
2022/04/13 07:55:39;;;;;;;11.68;3.95;;;15.70;1.00;;;;;;4956390;29;20114;-88
2022/04/13 07:58:04;;;;;;;12.27;3.28;;;15.80;1.00;;;;;;4954543;29;20134;-89
2022/04/13 08:00:30;;;;;;;10.80;3.60;;;15.90;1.00;;;;;;4954607;29;20208;-88
2022/04/13 08:02:56;;;;;;;13.50;6.22;;;16.00;1.00;;;;;;4969703;28;20046;-88
2022/04/13 08:05:22;;;;;;;10.35;3.67;;;16.00;1.00;;;;;;4954622;29;20042;-89
2022/04/13 08:07:48;;;;;;;25.02;9.52;;;16.00;1.00;;;;;;4956201;29;20031;-88
2022/04/13 08:10:15;;;;;;;9.35;2.97;;;16.10;1.00;;;;;;4958870;28;20110;-89
2022/04/13 08:12:41;;;;;;;11.77;3.38;;;16.10;1.00;;;;;;4947696;29;20449;-89
2022/04/13 08:15:08;;;;;;;10.52;3.42;;;16.30;1.00;;;;;;4954492;29;20035;-89
2022/04/13 08:17:34;;;;;;;10.77;3.20;;;16.20;1.00;;;;;;4953855;29;20161;-89
2022/04/13 08:20:00;;;;;;;8.60;2.75;;;16.20;1.00;;;;;;4956401;29;20126;-89
2022/04/13 08:22:27;;;;;;;8.52;3.10;;;16.30;1.00;;;;;;4954166;29;20050;-89
2022/04/13 08:24:54;;;;;;;8.10;3.08;;;16.30;1.00;;;;;;4954401;29;20067;-89
2022/04/13 08:27:20;;;;;;;12.32;2.60;;;16.30;1.00;;;;;;4953465;29;20043;-88
2022/04/13 08:29:46;;;;;;;10.25;2.70;;;16.30;1.00;;;;;;4954990;29;20082;-89
2022/04/13 08:32:17;;;;;;;8.07;2.58;;;16.40;1.00;;;;;;4953921;29;20564;-89
2022/04/13 08:34:43;;;;;;;11.68;3.40;;;16.60;1.00;;;;;;4955889;29;20046;-88
2022/04/13 08:37:10;;;;;;;10.93;2.83;;;16.80;1.00;;;;;;4954118;29;20039;-89
2022/04/13 08:39:36;;;;;;;7.90;3.13;;;17.00;1.00;;;;;;4954725;29;20027;-89
2022/04/13 08:42:24;;;;;;;18.55;5.47;;;16.80;1.00;;;;;;4955172;29;20036;-88
2022/04/13 08:44:51;;;;;;;13.05;3.25;;;16.60;1.00;;;;;;4939113;29;20035;-89
2022/04/13 08:47:18;;;;;;;10.95;3.95;;;16.80;1.00;;;;;;4954129;28;20027;-88
2022/04/13 08:49:45;;;;;;;13.73;5.95;;;17.00;1.00;;;;;;4953474;29;20019;-89
2022/04/13 08:52:14;;;;;;;8.27;3.22;;;17.10;1.00;;;;;;4953569;29;20043;-89
2022/04/13 08:54:49;;;;;;;8.93;3.00;;;17.10;1.00;;;;;;4954538;29;20023;-88
2022/04/13 08:57:17;;;;;;;7.40;2.60;;;17.20;1.00;;;;;;4953435;29;20102;-88
2022/04/13 09:00:06;;;;;;;9.82;2.90;;;17.40;1.00;;;;;;4954079;28;20027;-89
2022/04/13 09:02:56;;;;;;;9.63;3.03;;;17.30;1.00;;;;;;4939355;29;20082;-88
2022/04/13 09:05:28;;;;;;;8.05;2.83;;;17.40;1.00;;;;;;4953727;29;20039;-88
2022/04/13 09:08:23;;;;;;;6.95;2.72;;;17.70;1.00;;;;;;4953491;29;20034;-89
2022/04/13 09:10:53;;;;;;;8.60;3.10;;;18.00;1.00;;;;;;4876363;29;20080;-88
2022/04/13 09:13:21;;;;;;;16.13;6.05;;;18.00;1.00;;;;;;4894173;29;20150;-89
2022/04/13 09:15:47;;;;;;;8.05;3.58;;;18.10;1.00;;;;;;4893610;29;20036;-89
2022/04/13 09:18:12;;;;;;;10.07;3.75;;;18.10;1.00;;;;;;4874348;29;20037;-89
2022/04/13 09:20:39;;;;;;;13.05;2.80;;;18.10;1.00;;;;;;4893671;29;20548;-88
2022/04/13 09:23:05;;;;;;;9.90;3.40;;;18.10;1.00;;;;;;4876675;29;20489;-89
2022/04/13 09:25:32;;;;;;;8.07;2.55;;;18.30;1.00;;;;;;4888527;29;20040;-89
2022/04/13 09:28:00;;;;;;;11.52;3.13;;;18.20;1.00;;;;;;4872253;29;20143;-89
2022/04/13 09:30:26;;;;;;;9.15;2.97;;;18.40;1.00;;;;;;4885760;29;20033;-88
2022/04/13 09:32:52;;;;;;;8.95;2.75;;;18.50;1.00;;;;;;4865787;29;20040;-88
2022/04/13 09:35:19;;;;;;;8.65;3.63;;;18.50;1.00;;;;;;4894472;29;20111;-88
2022/04/13 09:37:45;;;;;;;8.57;3.00;;;18.50;1.00;;;;;;4895183;29;20056;-88
2022/04/13 09:40:34;;;;;;;8.57;2.92;;;18.60;1.00;;;;;;4887411;29;20058;-89
2022/04/13 09:43:15;;;;;;;9.57;2.90;;;18.70;1.00;;;;;;4877696;29;20032;-88
2022/04/13 09:45:43;;;;;;;7.10;2.70;;;18.60;1.00;;;;;;4893182;29;20033;-88
2022/04/13 09:48:17;;;;;;;14.50;6.20;;;18.50;1.00;;;;;;4932283;29;20035;-88
2022/04/13 09:50:44;;;;;;;18.52;11.30;;;18.60;1.00;;;;;;4952723;29;20070;-88
2022/04/13 09:53:11;;;;;;;25.58;16.63;;;18.70;1.00;;;;;;4953300;28;20443;-89
2022/04/13 09:55:59;;;;;;;8.82;3.45;;;18.90;1.00;;;;;;4953196;29;20027;-89
2022/04/13 09:58:26;;;;;;;10.75;3.20;;;18.70;1.00;;;;;;4953696;29;20125;-88
2022/04/13 10:00:54;;;;;;;10.30;3.75;;;18.60;1.00;;;;;;4953634;29;20408;-88
2022/04/13 10:03:22;;;;;;;7.05;2.92;;;18.70;1.00;;;;;;4953155;29;20027;-88
2022/04/13 10:05:52;;;;;;;9.65;2.80;;;18.60;1.00;;;;;;4952792;28;20027;-88
2022/04/13 10:08:22;;;;;;;5.28;2.63;;;18.80;1.00;;;;;;4953122;29;20027;-89
2022/04/13 10:10:50;;;;;;;10.05;3.00;;;19.00;1.00;;;;;;4951136;28;20388;-88
2022/04/13 10:13:34;;;;;;;8.07;3.20;;;19.20;1.00;;;;;;4951752;29;20031;-87
2022/04/13 10:16:08;;;;;;;8.77;2.95;;;19.10;1.00;;;;;;4952376;29;20122;-88
2022/04/13 10:18:53;;;;;;;8.88;2.75;;;19.30;1.00;;;;;;4952125;29;20036;-89
2022/04/13 10:21:43;;;;;;;6.35;2.67;;;19.10;1.00;;;;;;4952486;29;20090;-88
2022/04/13 10:24:30;;;;;;;9.60;2.80;;;19.50;1.00;;;;;;4952949;29;20043;-88
2022/04/13 10:27:02;;;;;;;5.53;2.33;;;19.70;1.00;;;;;;4952464;29;20047;-88
2022/04/13 10:29:29;;;;;;;6.50;2.28;;;19.80;1.00;;;;;;4953216;29;20039;-89
2022/04/13 10:32:15;;;;;;;6.65;2.30;;;20.10;1.00;;;;;;4953928;29;20093;-88
2022/04/13 10:34:46;;;;;;;8.65;3.42;;;20.80;1.00;;;;;;4952431;29;20118;-89
2022/04/13 10:37:14;;;;;;;10.38;3.17;;;21.20;1.00;;;;;;4951267;29;20403;-89
2022/04/13 10:39:41;;;;;;;10.25;2.88;;;21.40;1.00;;;;;;4952892;28;20399;-88
2022/04/13 10:42:11;;;;;;;8.95;2.70;;;21.70;1.00;;;;;;4952729;29;20042;-89
2022/04/13 10:44:41;;;;;;;8.15;3.05;;;21.80;1.00;;;;;;4953252;28;20039;-89
2022/04/13 10:47:10;;;;;;;7.20;2.33;;;21.90;1.00;;;;;;4953296;29;20026;-89
2022/04/13 10:49:43;;;;;;;6.45;2.72;;;22.00;1.00;;;;;;4966973;28;20443;-89
2022/04/13 10:52:23;;;;;;;8.73;2.47;;;22.30;1.00;;;;;;4950987;29;20028;-89
2022/04/13 10:54:57;;;;;;;6.53;2.45;;;22.50;1.00;;;;;;4952325;29;20050;-88
2022/04/13 10:57:28;;;;;;;8.82;2.67;;;22.10;1.00;;;;;;4952583;28;20039;-88
2022/04/13 10:59:56;;;;;;;8.32;2.67;;;21.70;1.00;;;;;;4953015;29;20050;-89
2022/04/13 11:02:46;;;;;;;10.30;2.50;;;21.50;1.00;;;;;;4951701;29;20074;-88
2022/04/13 11:05:13;;;;;;;6.95;2.60;;;21.70;1.00;;;;;;4949998;29;20542;-89
2022/04/13 11:07:40;;;;;;;6.38;2.45;;;21.40;1.00;;;;;;4953385;29;20471;-89
2022/04/13 11:10:10;;;;;;;9.45;2.30;;;21.20;1.00;;;;;;4953000;29;20028;-88
2022/04/13 11:12:37;;;;;;;10.60;3.35;;;21.20;1.00;;;;;;4952270;29;20476;-88
2022/04/13 11:15:03;;;;;;;9.00;2.90;;;21.10;1.00;;;;;;4952320;29;20027;-88
2022/04/13 11:17:29;;;;;;;8.25;2.65;;;21.40;1.00;;;;;;4951578;29;20126;-88
2022/04/13 11:20:15;;;;;;;6.43;2.60;;;21.30;1.00;;;;;;4951726;29;20535;-88
2022/04/13 11:22:40;;;;;;;10.15;3.05;;;21.40;1.00;;;;;;4949236;28;20042;-88
2022/04/13 11:25:06;;;;;;;7.43;2.63;;;21.10;1.00;;;;;;4956230;28;20031;-89
2022/04/13 11:27:54;;;;;;;6.00;2.80;;;21.10;1.00;;;;;;4955802;29;20134;-88
2022/04/13 11:30:20;;;;;;;8.07;3.08;;;21.30;1.00;;;;;;4954865;29;20058;-88
2022/04/13 11:32:47;;;;;;;7.32;3.45;;;21.20;1.00;;;;;;4954622;29;20035;-89
2022/04/13 11:35:26;;;;;;;7.53;2.63;;;21.40;1.00;;;;;;4955308;29;20450;-88
2022/04/13 11:38:06;;;;;;;8.82;3.03;;;21.10;1.00;;;;;;4954080;29;20138;-89
2022/04/13 11:40:32;;;;;;;7.57;2.60;;;21.10;1.00;;;;;;4955885;29;20043;-89
2022/04/13 11:43:04;;;;;;;9.00;2.92;;;21.00;1.00;;;;;;4955605;29;20297;-88
2022/04/13 11:45:30;;;;;;;10.48;3.05;;;21.20;1.00;;;;;;4954514;29;20408;-88
2022/04/13 11:48:03;;;;;;;6.80;2.92;;;21.10;1.00;;;;;;4955180;29;20038;-88
2022/04/13 11:50:40;;;;;;;6.30;3.05;;;21.10;1.00;;;;;;4954201;29;20035;-89
2022/04/13 11:53:12;;;;;;;8.95;3.35;;;21.40;1.00;;;;;;4953062;29;20023;-88
2022/04/13 11:55:40;;;;;;;6.40;2.60;;;21.10;1.00;;;;;;4953845;29;20041;-88
2022/04/13 11:58:08;;;;;;;6.50;2.53;;;21.10;1.00;;;;;;4954897;29;20035;-88
2022/04/13 12:00:41;;;;;;;7.85;2.85;;;21.60;1.00;;;;;;4955317;29;20475;-88
2022/04/13 12:03:15;;;;;;;7.35;2.47;;;21.40;1.00;;;;;;4955365;28;20118;-88
2022/04/13 12:05:53;;;;;;;7.13;2.78;;;21.20;1.00;;;;;;4953463;29;20046;-88
2022/04/13 12:08:25;;;;;;;9.50;5.72;;;21.90;1.00;;;;;;4955592;29;20016;-88
2022/04/13 12:11:01;;;;;;;15.60;6.55;;;22.20;1.00;;;;;;4955708;29;20063;-88
2022/04/13 12:13:32;;;;;;;8.57;2.72;;;22.20;1.00;;;;;;4954753;29;20034;-88
2022/04/13 12:16:00;;;;;;;9.20;5.95;;;22.10;1.00;;;;;;4953539;29;20039;-89
2022/04/13 12:18:26;;;;;;;9.27;2.65;;;22.20;1.00;;;;;;4954662;29;20512;-88
2022/04/13 12:20:54;;;;;;;8.63;2.90;;;22.20;1.00;;;;;;4954981;29;20058;-88
2022/04/13 12:23:27;;;;;;;9.73;3.03;;;22.20;1.00;;;;;;4955012;28;20031;-89
2022/04/13 12:25:56;;;;;;;8.95;4.00;;;22.10;1.00;;;;;;4954556;29;20491;-89
2022/04/13 12:28:23;;;;;;;8.23;2.75;;;22.10;1.00;;;;;;4954766;29;20138;-88
2022/04/13 12:30:57;;;;;;;8.75;2.30;;;22.10;1.00;;;;;;4954737;29;20035;-88
2022/04/13 12:33:24;;;;;;;7.05;2.50;;;21.90;1.00;;;;;;4954500;29;20031;-88
2022/04/13 12:36:03;;;;;;;5.72;2.22;;;22.00;1.00;;;;;;4953958;28;20035;-88
2022/04/13 12:38:42;;;;;;;12.98;8.77;;;22.10;1.00;;;;;;4954424;29;20039;-88
2022/04/13 12:41:14;;;;;;;5.05;2.20;;;21.40;1.00;;;;;;4950322;28;20465;-88
2022/04/13 12:43:49;;;;;;;8.85;2.22;;;21.30;1.00;;;;;;4954580;29;20488;-89
2022/04/13 12:46:20;;;;;;;5.20;2.50;;;21.50;1.00;;;;;;4952765;29;20035;-89
2022/04/13 12:48:49;;;;;;;7.72;3.10;;;21.70;1.00;;;;;;4954629;29;20023;-88
2022/04/13 12:51:15;;;;;;;8.15;2.70;;;21.80;1.00;;;;;;4954315;29;20046;-88
2022/04/13 12:53:45;;;;;;;5.32;2.05;;;21.90;1.00;;;;;;4954520;29;20052;-88
2022/04/13 12:56:14;;;;;;;5.85;2.30;;;21.90;1.00;;;;;;4954402;29;20037;-88